Adams, OR

2:24 AM PST on November 22, 2019 (GMT -0800)
North Adams | | Change Station

Elev 1535 ft 45.77 °N, 118.56 °W | Updated 17 seconds ago

Clear
Clear
21 °F
Feels Like 21 °F
N
0.2
Wind Variable Wind from SE
Gusts 1.1 mph

Today
High -- | Low -- °F
--% Chance of Precip.
Yesterday
High -- | Low -- °F
Precip. -- in
Pressure 30.17 in
Visibility 7.0 miles
Clouds Clear
Windchill 21 °F
Dew Point 20 °F
Humidity 95%
Rainfall 0.00 in
Snow Depth Not available.
7:03 AM 4:16 PM
Waning Crescent, 22% visible
METAR KPDT 220953Z AUTO 13005KT 7SM CLR M03/M04 A3015 RMK AO2 SLP215 T10281044
Pressure 30.17 in
Visibility 7.0 miles
Clouds Clear
Windchill 21 °F
Dew Point 20 °F
Humidity 95%
Rainfall 0.00 in
Snow Depth Not available.
7:03 AM 4:16 PM
Waning Crescent, 22% visible
METAR KPDT 220953Z AUTO 13005KT 7SM CLR M03/M04 A3015 RMK AO2 SLP215 T10281044

Get Severe Weather Alerts

Thanks for signing up!

Be on the lookout for a verification email in your inbox.

You'll start receiving the daily forecast at 6 AM.

×

10-Day Weather Forecast

Almanac

Astronomy

Nov. 22, 2019 Rise Set
Actual Time
Civil Twilight
Nautical Twilight
Astronomical Twilight
Moon
Length of Visible Light
Length of Day
Tomorrow will be .
, % of the Moon is Illuminated

Today's Extremes

State Highs State Lows

Community

WunderPhotos

Category 6

Welcome to Category 6. This is the collective home for Weather Underground's featured writeups by Dr. Jeff Masters (right), Bob Henson (left), Chris Burt, and other regular contributors.

Nearby

Air Quality

  Air Quality AQ Index Pollutant
Not available.

Snow Depth

Station Depth Elevation

Earthquake Activity

City Distance Mag. Time & Date
Minimum magnitude displayed is 2.5.

Coastal Water Temperatures

Place Temperature

Stations

Nearby Weather Stations

Station Location Temp. Windchill Dew Point Humidity Wind Precip. Elev Updated Type
                   

Watches & Warnings

There are currently no watches in effect.